sensor_id;sensor_type;location;lat;lon;timestamp;pressure;altitude;pressure_sealevel;temperature;humidity
18137;BME280;9194;42.632;23.298;2023-02-02T00:02:41;92586.47;;;4.24;60.91
18137;BME280;9194;42.632;23.298;2023-02-02T00:07:43;92587.41;;;4.17;63.77
18137;BME280;9194;42.632;23.298;2023-02-02T00:12:44;92590.94;;;3.94;64.29
18137;BME280;9194;42.632;23.298;2023-02-02T00:17:45;92583.75;;;3.90;64.79
18137;BME280;9194;42.632;23.298;2023-02-02T00:22:48;92580.97;;;3.70;66.82
18137;BME280;9194;42.632;23.298;2023-02-02T00:27:50;92586.06;;;3.85;66.14
18137;BME280;9194;42.632;23.298;2023-02-02T00:32:51;92595.59;;;3.69;68.69
18137;BME280;9194;42.632;23.298;2023-02-02T00:37:53;92587.16;;;3.76;71.81
18137;BME280;9194;42.632;23.298;2023-02-02T00:42:54;92596.19;;;3.86;70.13
18137;BME280;9194;42.632;23.298;2023-02-02T00:47:55;92593.13;;;3.61;72.92
18137;BME280;9194;42.632;23.298;2023-02-02T00:52:57;92597.72;;;3.81;72.96
18137;BME280;9194;42.632;23.298;2023-02-02T00:57:59;92584.88;;;3.66;73.68
18137;BME280;9194;42.632;23.298;2023-02-02T01:03:00;92587.44;;;3.66;74.00
18137;BME280;9194;42.632;23.298;2023-02-02T01:08:04;92576.09;;;3.60;73.50
18137;BME280;9194;42.632;23.298;2023-02-02T01:13:06;92583.03;;;3.45;78.18
18137;BME280;9194;42.632;23.298;2023-02-02T01:18:07;92573.91;;;3.28;78.97
18137;BME280;9194;42.632;23.298;2023-02-02T01:23:09;92556.25;;;3.40;74.09
18137;BME280;9194;42.632;23.298;2023-02-02T01:28:10;92565.47;;;3.34;76.28
18137;BME280;9194;42.632;23.298;2023-02-02T01:33:11;92572.22;;;3.20;76.50
18137;BME280;9194;42.632;23.298;2023-02-02T01:38:14;92570.03;;;3.03;77.88
18137;BME280;9194;42.632;23.298;2023-02-02T01:43:25;92564.34;;;2.93;76.98
18137;BME280;9194;42.632;23.298;2023-02-02T01:48:33;92553.53;;;2.82;78.34
18137;BME280;9194;42.632;23.298;2023-02-02T01:53:35;92545.72;;;2.76;78.44
18137;BME280;9194;42.632;23.298;2023-02-02T01:58:39;92542.94;;;2.63;81.27
18137;BME280;9194;42.632;23.298;2023-02-02T02:03:42;92546.41;;;2.55;81.06
18137;BME280;9194;42.632;23.298;2023-02-02T02:09:00;92522.38;;;2.63;76.64
18137;BME280;9194;42.632;23.298;2023-02-02T02:14:06;92538.00;;;2.61;76.91
18137;BME280;9194;42.632;23.298;2023-02-02T02:25:40;92537.41;;;2.88;73.91
18137;BME280;9194;42.632;23.298;2023-02-02T02:41:48;92529.31;;;2.92;69.58
18137;BME280;9194;42.632;23.298;2023-02-02T02:46:50;92545.72;;;3.20;64.12
18137;BME280;9194;42.632;23.298;2023-02-02T02:51:54;92541.72;;;2.88;68.22
18137;BME280;9194;42.632;23.298;2023-02-02T02:57:33;92537.56;;;3.02;64.68
18137;BME280;9194;42.632;23.298;2023-02-02T03:08:07;92533.75;;;3.12;62.57
18137;BME280;9194;42.632;23.298;2023-02-02T03:13:11;92520.34;;;3.17;63.78
18137;BME280;9194;42.632;23.298;2023-02-02T03:18:16;92528.16;;;3.09;66.25
18137;BME280;9194;42.632;23.298;2023-02-02T03:23:19;92523.38;;;3.06;68.17
18137;BME280;9194;42.632;23.298;2023-02-02T03:28:22;92516.03;;;2.88;69.40
18137;BME280;9194;42.632;23.298;2023-02-02T03:33:24;92520.38;;;2.87;69.67
18137;BME280;9194;42.632;23.298;2023-02-02T03:38:25;92530.13;;;2.77;71.44
18137;BME280;9194;42.632;23.298;2023-02-02T03:43:26;92522.94;;;2.87;70.02
18137;BME280;9194;42.632;23.298;2023-02-02T03:48:27;92520.88;;;2.68;70.86
18137;BME280;9194;42.632;23.298;2023-02-02T03:53:29;92528.06;;;2.58;69.56
18137;BME280;9194;42.632;23.298;2023-02-02T03:58:30;92536.41;;;2.60;70.52
18137;BME280;9194;42.632;23.298;2023-02-02T04:03:32;92540.75;;;2.74;70.49
18137;BME280;9194;42.632;23.298;2023-02-02T04:08:33;92546.59;;;2.68;69.94
18137;BME280;9194;42.632;23.298;2023-02-02T04:13:35;92554.75;;;2.72;69.88
18137;BME280;9194;42.632;23.298;2023-02-02T04:18:36;92550.88;;;2.91;66.80
18137;BME280;9194;42.632;23.298;2023-02-02T04:23:38;92554.94;;;2.70;69.67
18137;BME280;9194;42.632;23.298;2023-02-02T04:28:39;92558.72;;;2.60;67.07
18137;BME280;9194;42.632;23.298;2023-02-02T04:33:40;92567.13;;;2.54;70.12
18137;BME280;9194;42.632;23.298;2023-02-02T04:38:48;92556.19;;;2.37;68.65
18137;BME280;9194;42.632;23.298;2023-02-02T04:43:50;92553.91;;;2.57;66.80
18137;BME280;9194;42.632;23.298;2023-02-02T04:48:51;92557.03;;;2.52;66.29
18137;BME280;9194;42.632;23.298;2023-02-02T04:53:52;92562.47;;;2.72;64.34
18137;BME280;9194;42.632;23.298;2023-02-02T04:58:54;92552.28;;;2.78;62.82
18137;BME280;9194;42.632;23.298;2023-02-02T05:03:58;92554.59;;;2.88;63.54
18137;BME280;9194;42.632;23.298;2023-02-02T05:09:02;92549.09;;;2.76;66.42
18137;BME280;9194;42.632;23.298;2023-02-02T05:14:03;92548.09;;;2.63;67.22
18137;BME280;9194;42.632;23.298;2023-02-02T05:19:05;92553.47;;;2.53;69.22
18137;BME280;9194;42.632;23.298;2023-02-02T05:24:06;92558.56;;;2.61;65.68
18137;BME280;9194;42.632;23.298;2023-02-02T05:29:08;92535.94;;;2.42;68.35
18137;BME280;9194;42.632;23.298;2023-02-02T05:34:09;92545.38;;;2.27;70.64
18137;BME280;9194;42.632;23.298;2023-02-02T05:39:11;92564.88;;;2.51;69.02
18137;BME280;9194;42.632;23.298;2023-02-02T05:44:13;92561.25;;;2.45;69.68
18137;BME280;9194;42.632;23.298;2023-02-02T05:49:14;92570.28;;;2.41;69.44
18137;BME280;9194;42.632;23.298;2023-02-02T05:54:16;92572.56;;;2.88;62.52
18137;BME280;9194;42.632;23.298;2023-02-02T05:59:20;92544.22;;;3.25;61.81
18137;BME280;9194;42.632;23.298;2023-02-02T06:04:21;92556.38;;;3.02;66.01
18137;BME280;9194;42.632;23.298;2023-02-02T06:09:23;92555.75;;;3.00;67.00
18137;BME280;9194;42.632;23.298;2023-02-02T06:14:28;92560.13;;;3.50;60.27
18137;BME280;9194;42.632;23.298;2023-02-02T06:19:29;92571.97;;;3.30;64.32
18137;BME280;9194;42.632;23.298;2023-02-02T06:24:30;92583.66;;;3.47;63.54
18137;BME280;9194;42.632;23.298;2023-02-02T06:29:32;92599.88;;;3.62;64.36
18137;BME280;9194;42.632;23.298;2023-02-02T06:34:33;92585.94;;;3.71;62.71
18137;BME280;9194;42.632;23.298;2023-02-02T06:39:34;92601.66;;;3.98;62.01
18137;BME280;9194;42.632;23.298;2023-02-02T06:44:35;92615.31;;;4.13;61.33
18137;BME280;9194;42.632;23.298;2023-02-02T06:49:37;92618.41;;;4.08;63.48
18137;BME280;9194;42.632;23.298;2023-02-02T06:54:38;92603.00;;;3.94;63.61
18137;BME280;9194;42.632;23.298;2023-02-02T06:59:39;92611.06;;;4.27;64.14
18137;BME280;9194;42.632;23.298;2023-02-02T07:04:41;92621.94;;;4.22;62.70
18137;BME280;9194;42.632;23.298;2023-02-02T07:09:42;92636.34;;;4.38;63.97
18137;BME280;9194;42.632;23.298;2023-02-02T07:14:44;92623.59;;;4.51;60.93
18137;BME280;9194;42.632;23.298;2023-02-02T07:19:45;92627.34;;;4.70;60.53
18137;BME280;9194;42.632;23.298;2023-02-02T07:24:47;92633.84;;;4.66;60.47
18137;BME280;9194;42.632;23.298;2023-02-02T07:29:49;92633.66;;;4.46;60.72
18137;BME280;9194;42.632;23.298;2023-02-02T07:34:51;92629.72;;;4.71;61.03
18137;BME280;9194;42.632;23.298;2023-02-02T07:39:52;92618.63;;;5.26;59.51
18137;BME280;9194;42.632;23.298;2023-02-02T07:44:54;92616.25;;;5.31;59.50
18137;BME280;9194;42.632;23.298;2023-02-02T07:49:55;92604.31;;;5.58;58.86
18137;BME280;9194;42.632;23.298;2023-02-02T07:54:57;92580.47;;;5.56;58.66
18137;BME280;9194;42.632;23.298;2023-02-02T07:59:58;92563.53;;;5.13;60.36
18137;BME280;9194;42.632;23.298;2023-02-02T08:04:59;92565.16;;;4.86;64.53
18137;BME280;9194;42.632;23.298;2023-02-02T08:10:01;92556.94;;;5.38;62.09
18137;BME280;9194;42.632;23.298;2023-02-02T08:15:02;92537.53;;;6.03;60.46
18137;BME280;9194;42.632;23.298;2023-02-02T08:20:04;92549.72;;;6.42;58.14
18137;BME280;9194;42.632;23.298;2023-02-02T08:25:06;92549.50;;;6.10;60.06
18137;BME280;9194;42.632;23.298;2023-02-02T08:30:09;92554.09;;;5.67;62.08
18137;BME280;9194;42.632;23.298;2023-02-02T08:35:10;92545.59;;;5.32;64.17
18137;BME280;9194;42.632;23.298;2023-02-02T08:40:11;92537.53;;;5.08;66.09
18137;BME280;9194;42.632;23.298;2023-02-02T08:45:13;92545.75;;;5.24;65.37
18137;BME280;9194;42.632;23.298;2023-02-02T08:50:15;92548.06;;;5.54;65.10
18137;BME280;9194;42.632;23.298;2023-02-02T08:55:16;92528.56;;;5.38;66.13
18137;BME280;9194;42.632;23.298;2023-02-02T09:00:18;92524.16;;;5.86;63.79
18137;BME280;9194;42.632;23.298;2023-02-02T09:05:19;92529.78;;;5.96;63.97
18137;BME280;9194;42.632;23.298;2023-02-02T09:10:21;92528.59;;;6.12;63.00
18137;BME280;9194;42.632;23.298;2023-02-02T09:15:23;92530.41;;;6.18;61.56
18137;BME280;9194;42.632;23.298;2023-02-02T09:20:24;92538.19;;;6.31;60.10
18137;BME280;9194;42.632;23.298;2023-02-02T09:25:26;92518.50;;;6.37;62.00
18137;BME280;9194;42.632;23.298;2023-02-02T09:30:28;92525.44;;;6.30;60.67
18137;BME280;9194;42.632;23.298;2023-02-02T09:35:29;92531.63;;;6.29;61.52
18137;BME280;9194;42.632;23.298;2023-02-02T09:40:33;92512.13;;;6.59;60.06
18137;BME280;9194;42.632;23.298;2023-02-02T09:45:46;92502.00;;;6.44;59.75
18137;BME280;9194;42.632;23.298;2023-02-02T09:51:03;92510.16;;;6.35;58.71
18137;BME280;9194;42.632;23.298;2023-02-02T09:56:11;92511.34;;;6.45;59.76
18137;BME280;9194;42.632;23.298;2023-02-02T10:11:40;92476.47;;;6.94;57.72
18137;BME280;9194;42.632;23.298;2023-02-02T10:16:46;92472.91;;;6.88;58.54
18137;BME280;9194;42.632;23.298;2023-02-02T10:22:17;92471.72;;;6.84;57.93
18137;BME280;9194;42.632;23.298;2023-02-02T10:27:36;92474.41;;;7.22;56.71
18137;BME280;9194;42.632;23.298;2023-02-02T10:32:47;92453.78;;;7.47;56.59
18137;BME280;9194;42.632;23.298;2023-02-02T10:38:25;92429.44;;;7.61;54.30
18137;BME280;9194;42.632;23.298;2023-02-02T10:43:41;92433.84;;;7.54;56.34
18137;BME280;9194;42.632;23.298;2023-02-02T10:48:49;92438.69;;;7.44;57.90
18137;BME280;9194;42.632;23.298;2023-02-02T10:53:56;92430.47;;;7.09;58.11
18137;BME280;9194;42.632;23.298;2023-02-02T10:59:05;92412.41;;;7.34;56.44
18137;BME280;9194;42.632;23.298;2023-02-02T11:04:08;92394.56;;;7.26;55.91
18137;BME280;9194;42.632;23.298;2023-02-02T11:09:32;92408.69;;;7.23;57.88
18137;BME280;9194;42.632;23.298;2023-02-02T11:14:41;92416.25;;;7.25;57.34
18137;BME280;9194;42.632;23.298;2023-02-02T11:19:43;92399.00;;;7.06;57.38
18137;BME280;9194;42.632;23.298;2023-02-02T11:24:47;92373.94;;;7.44;54.88
18137;BME280;9194;42.632;23.298;2023-02-02T11:29:54;92376.13;;;7.40;55.14
18137;BME280;9194;42.632;23.298;2023-02-02T11:45:38;92367.22;;;6.98;56.51
18137;BME280;9194;42.632;23.298;2023-02-02T11:50:49;92361.16;;;7.49;55.00
18137;BME280;9194;42.632;23.298;2023-02-02T11:55:52;92357.66;;;7.68;54.49
18137;BME280;9194;42.632;23.298;2023-02-02T12:01:01;92362.88;;;7.24;54.72
18137;BME280;9194;42.632;23.298;2023-02-02T12:06:36;92349.50;;;6.89;56.88
18137;BME280;9194;42.632;23.298;2023-02-02T12:12:02;92346.31;;;6.93;57.09
18137;BME280;9194;42.632;23.298;2023-02-02T12:22:44;92343.75;;;7.63;55.28
18137;BME280;9194;42.632;23.298;2023-02-02T12:43:50;92352.31;;;7.32;51.59
18137;BME280;9194;42.632;23.298;2023-02-02T13:00:29;92363.63;;;7.37;51.51
18137;BME280;9194;42.632;23.298;2023-02-02T13:10:52;92352.22;;;7.45;52.35
18137;BME280;9194;42.632;23.298;2023-02-02T13:16:04;92360.31;;;7.55;50.98
18137;BME280;9194;42.632;23.298;2023-02-02T13:21:10;92357.31;;;7.58;50.92
18137;BME280;9194;42.632;23.298;2023-02-02T13:26:18;92361.88;;;7.63;52.44
18137;BME280;9194;42.632;23.298;2023-02-02T13:31:29;92352.09;;;7.65;50.79
18137;BME280;9194;42.632;23.298;2023-02-02T13:36:34;92352.38;;;7.19;52.24
18137;BME280;9194;42.632;23.298;2023-02-02T13:41:38;92355.97;;;6.67;54.43
18137;BME280;9194;42.632;23.298;2023-02-02T13:47:05;92353.06;;;6.30;55.62
18137;BME280;9194;42.632;23.298;2023-02-02T13:52:47;92327.84;;;6.83;54.33
18137;BME280;9194;42.632;23.298;2023-02-02T14:03:19;92340.28;;;7.44;57.37
18137;BME280;9194;42.632;23.298;2023-02-02T14:08:24;92357.38;;;7.14;61.62
18137;BME280;9194;42.632;23.298;2023-02-02T14:13:41;92354.00;;;7.07;65.00
18137;BME280;9194;42.632;23.298;2023-02-02T14:19:07;92364.97;;;6.51;65.72
18137;BME280;9194;42.632;23.298;2023-02-02T14:34:35;92363.63;;;5.69;69.13
18137;BME280;9194;42.632;23.298;2023-02-02T14:45:33;92400.72;;;5.49;73.90
18137;BME280;9194;42.632;23.298;2023-02-02T15:06:37;92521.25;;;3.24;100.00
18137;BME280;9194;42.632;23.298;2023-02-02T15:17:02;92571.41;;;2.01;100.00
18137;BME280;9194;42.632;23.298;2023-02-02T15:22:35;92595.63;;;1.98;100.00
18137;BME280;9194;42.632;23.298;2023-02-02T15:27:37;92623.34;;;1.80;100.00
18137;BME280;9194;42.632;23.298;2023-02-02T15:32:39;92612.00;;;1.75;100.00
18137;BME280;9194;42.632;23.298;2023-02-02T15:37:52;92614.06;;;1.71;100.00
18137;BME280;9194;42.632;23.298;2023-02-02T15:42:59;92615.41;;;1.59;100.00
18137;BME280;9194;42.632;23.298;2023-02-02T15:48:05;92612.25;;;1.57;100.00
18137;BME280;9194;42.632;23.298;2023-02-02T15:53:16;92616.75;;;1.47;100.00
18137;BME280;9194;42.632;23.298;2023-02-02T15:58:24;92614.97;;;1.55;100.00
18137;BME280;9194;42.632;23.298;2023-02-02T16:03:35;92629.03;;;1.59;100.00
18137;BME280;9194;42.632;23.298;2023-02-02T16:08:39;92624.13;;;1.50;100.00
18137;BME280;9194;42.632;23.298;2023-02-02T16:13:50;92622.00;;;1.53;100.00
18137;BME280;9194;42.632;23.298;2023-02-02T16:19:11;92668.84;;;1.47;100.00
18137;BME280;9194;42.632;23.298;2023-02-02T16:24:21;92633.06;;;1.62;100.00
18137;BME280;9194;42.632;23.298;2023-02-02T16:29:23;92642.53;;;1.53;100.00
18137;BME280;9194;42.632;23.298;2023-02-02T16:39:42;92655.03;;;1.56;100.00
18137;BME280;9194;42.632;23.298;2023-02-02T16:44:43;92644.94;;;1.55;100.00
18137;BME280;9194;42.632;23.298;2023-02-02T16:49:45;92636.91;;;1.58;100.00
18137;BME280;9194;42.632;23.298;2023-02-02T16:54:52;92643.63;;;1.67;100.00
18137;BME280;9194;42.632;23.298;2023-02-02T17:00:00;92650.16;;;1.70;100.00
18137;BME280;9194;42.632;23.298;2023-02-02T17:05:23;92667.44;;;1.76;100.00
18137;BME280;9194;42.632;23.298;2023-02-02T17:15:32;92686.56;;;1.73;100.00
18137;BME280;9194;42.632;23.298;2023-02-02T17:20:33;92699.72;;;1.70;100.00
18137;BME280;9194;42.632;23.298;2023-02-02T17:25:42;92685.25;;;1.77;100.00
18137;BME280;9194;42.632;23.298;2023-02-02T17:30:45;92672.78;;;1.66;100.00
18137;BME280;9194;42.632;23.298;2023-02-02T17:35:48;92664.94;;;1.68;100.00
18137;BME280;9194;42.632;23.298;2023-02-02T17:40:52;92694.75;;;1.69;100.00
18137;BME280;9194;42.632;23.298;2023-02-02T17:45:53;92685.28;;;1.69;100.00
18137;BME280;9194;42.632;23.298;2023-02-02T17:50:55;92694.25;;;1.73;100.00
18137;BME280;9194;42.632;23.298;2023-02-02T17:55:56;92701.66;;;1.68;100.00
18137;BME280;9194;42.632;23.298;2023-02-02T18:00:58;92689.44;;;1.78;100.00
18137;BME280;9194;42.632;23.298;2023-02-02T18:05:59;92668.75;;;1.72;100.00
18137;BME280;9194;42.632;23.298;2023-02-02T18:11:01;92687.19;;;1.75;100.00
18137;BME280;9194;42.632;23.298;2023-02-02T18:16:04;92689.59;;;1.77;100.00
18137;BME280;9194;42.632;23.298;2023-02-02T18:21:10;92680.75;;;1.79;100.00
18137;BME280;9194;42.632;23.298;2023-02-02T18:26:15;92681.72;;;1.78;100.00
18137;BME280;9194;42.632;23.298;2023-02-02T18:31:19;92690.50;;;1.92;100.00
18137;BME280;9194;42.632;23.298;2023-02-02T18:36:21;92706.38;;;1.87;100.00
18137;BME280;9194;42.632;23.298;2023-02-02T18:41:23;92709.88;;;1.94;100.00
18137;BME280;9194;42.632;23.298;2023-02-02T18:46:24;92682.28;;;1.96;100.00
18137;BME280;9194;42.632;23.298;2023-02-02T18:51:26;92700.72;;;2.00;100.00
18137;BME280;9194;42.632;23.298;2023-02-02T18:56:28;92699.44;;;1.96;100.00
18137;BME280;9194;42.632;23.298;2023-02-02T19:01:30;92710.97;;;2.00;100.00
18137;BME280;9194;42.632;23.298;2023-02-02T19:06:31;92699.09;;;1.99;100.00
18137;BME280;9194;42.632;23.298;2023-02-02T19:11:51;92705.72;;;1.93;100.00
18137;BME280;9194;42.632;23.298;2023-02-02T19:16:58;92705.38;;;1.96;100.00
18137;BME280;9194;42.632;23.298;2023-02-02T19:22:08;92709.94;;;1.86;100.00
18137;BME280;9194;42.632;23.298;2023-02-02T19:27:19;92724.63;;;1.92;100.00
18137;BME280;9194;42.632;23.298;2023-02-02T19:32:22;92726.16;;;1.71;100.00
18137;BME280;9194;42.632;23.298;2023-02-02T19:37:27;92733.09;;;1.62;100.00
18137;BME280;9194;42.632;23.298;2023-02-02T19:42:29;92734.53;;;1.64;100.00
18137;BME280;9194;42.632;23.298;2023-02-02T19:47:32;92727.00;;;1.63;100.00
18137;BME280;9194;42.632;23.298;2023-02-02T19:52:34;92731.13;;;1.72;100.00
18137;BME280;9194;42.632;23.298;2023-02-02T19:57:35;92731.13;;;1.72;100.00
18137;BME280;9194;42.632;23.298;2023-02-02T20:02:58;92738.84;;;1.72;100.00
18137;BME280;9194;42.632;23.298;2023-02-02T20:08:05;92740.09;;;1.76;100.00
18137;BME280;9194;42.632;23.298;2023-02-02T20:18:41;92721.84;;;1.71;100.00
18137;BME280;9194;42.632;23.298;2023-02-02T20:23:44;92725.91;;;1.49;100.00
18137;BME280;9194;42.632;23.298;2023-02-02T20:28:46;92731.47;;;1.69;100.00
18137;BME280;9194;42.632;23.298;2023-02-02T20:33:54;92719.31;;;2.02;100.00
18137;BME280;9194;42.632;23.298;2023-02-02T20:38:58;92719.72;;;1.83;100.00
18137;BME280;9194;42.632;23.298;2023-02-02T20:44:01;92709.22;;;2.00;99.52
18137;BME280;9194;42.632;23.298;2023-02-02T20:49:02;92713.00;;;2.13;96.49
18137;BME280;9194;42.632;23.298;2023-02-02T20:54:03;92708.44;;;2.23;92.16
18137;BME280;9194;42.632;23.298;2023-02-02T20:59:05;92715.84;;;2.26;93.00
18137;BME280;9194;42.632;23.298;2023-02-02T21:04:06;92712.38;;;2.11;93.86
18137;BME280;9194;42.632;23.298;2023-02-02T21:09:08;92706.06;;;2.21;90.51
18137;BME280;9194;42.632;23.298;2023-02-02T21:14:11;92704.53;;;2.35;90.29
18137;BME280;9194;42.632;23.298;2023-02-02T21:19:12;92703.59;;;2.28;88.84
18137;BME280;9194;42.632;23.298;2023-02-02T21:24:14;92703.03;;;2.18;91.60
18137;BME280;9194;42.632;23.298;2023-02-02T21:29:15;92700.94;;;2.21;91.97
18137;BME280;9194;42.632;23.298;2023-02-02T21:34:17;92701.78;;;2.14;93.22
18137;BME280;9194;42.632;23.298;2023-02-02T21:39:23;92709.75;;;2.19;93.00
18137;BME280;9194;42.632;23.298;2023-02-02T21:44:27;92707.94;;;2.27;92.13
18137;BME280;9194;42.632;23.298;2023-02-02T21:49:36;92714.56;;;2.22;94.23
18137;BME280;9194;42.632;23.298;2023-02-02T21:54:38;92715.63;;;2.27;92.75
18137;BME280;9194;42.632;23.298;2023-02-02T21:59:40;92729.50;;;2.18;94.09
18137;BME280;9194;42.632;23.298;2023-02-02T22:04:41;92725.59;;;2.30;93.06
18137;BME280;9194;42.632;23.298;2023-02-02T22:09:43;92746.81;;;2.24;95.65
18137;BME280;9194;42.632;23.298;2023-02-02T22:14:46;92732.78;;;2.35;91.99
18137;BME280;9194;42.632;23.298;2023-02-02T22:19:50;92715.72;;;2.42;91.89
18137;BME280;9194;42.632;23.298;2023-02-02T22:25:01;92726.41;;;2.31;90.78
18137;BME280;9194;42.632;23.298;2023-02-02T22:30:18;92730.44;;;2.25;92.55
18137;BME280;9194;42.632;23.298;2023-02-02T22:35:21;92733.75;;;2.34;91.30
18137;BME280;9194;42.632;23.298;2023-02-02T22:40:22;92721.56;;;2.28;94.04
18137;BME280;9194;42.632;23.298;2023-02-02T22:45:24;92729.97;;;2.22;95.36
18137;BME280;9194;42.632;23.298;2023-02-02T22:50:28;92726.09;;;2.26;92.08
18137;BME280;9194;42.632;23.298;2023-02-02T22:55:30;92713.94;;;2.20;91.59
18137;BME280;9194;42.632;23.298;2023-02-02T23:00:32;92731.97;;;2.34;89.61
18137;BME280;9194;42.632;23.298;2023-02-02T23:05:33;92713.59;;;2.23;91.85
18137;BME280;9194;42.632;23.298;2023-02-02T23:10:34;92722.09;;;2.23;93.31
18137;BME280;9194;42.632;23.298;2023-02-02T23:15:36;92741.84;;;2.23;94.60
18137;BME280;9194;42.632;23.298;2023-02-02T23:20:37;92725.00;;;2.20;93.47
18137;BME280;9194;42.632;23.298;2023-02-02T23:25:38;92730.31;;;2.19;97.55
18137;BME280;9194;42.632;23.298;2023-02-02T23:30:39;92724.53;;;2.17;99.76
18137;BME280;9194;42.632;23.298;2023-02-02T23:35:41;92741.63;;;2.01;100.00
18137;BME280;9194;42.632;23.298;2023-02-02T23:40:42;92741.03;;;1.83;100.00
18137;BME280;9194;42.632;23.298;2023-02-02T23:45:44;92733.31;;;1.91;100.00
18137;BME280;9194;42.632;23.298;2023-02-02T23:50:45;92745.22;;;1.76;100.00
18137;BME280;9194;42.632;23.298;2023-02-02T23:55:47;92751.06;;;1.62;100.00
